Time;durP1;ratioP1;P1;durP2;ratioP2;P2;SDS_P1;SDS_P2;PMS_P1;PMS_P2;Temp;Humidity;BMP_temperature;BMP_pressure;BME280_temperature;BME280_humidity;BME280_pressure;Samples;Min_cycle;Max_cycle;Signal;HPM_P1;HPM_P2
2021/12/09 00:00:08;;;;;;;3.03;2.08;;;2.80;99.90;;;;;;5088682;28;20428;-66
2021/12/09 00:02:34;;;;;;;6.60;2.83;;;2.80;99.90;;;;;;5086549;28;20335;-66
2021/12/09 00:05:00;;;;;;;4.70;2.57;;;2.70;99.90;;;;;;5088480;28;20190;-66
2021/12/09 00:07:26;;;;;;;5.33;2.30;;;2.80;99.90;;;;;;5087101;28;20542;-66
2021/12/09 00:09:51;;;;;;;9.63;3.67;;;2.80;99.90;;;;;;5089048;28;20185;-66
2021/12/09 00:12:18;;;;;;;9.70;4.20;;;2.80;99.90;;;;;;5087322;28;20221;-66
2021/12/09 00:14:44;;;;;;;11.65;3.75;;;2.80;99.90;;;;;;5088870;28;20180;-66
2021/12/09 00:17:10;;;;;;;6.53;3.90;;;2.80;99.90;;;;;;5086747;28;20718;-66
2021/12/09 00:19:37;;;;;;;4.60;3.10;;;2.80;99.90;;;;;;5087259;28;20187;-64
2021/12/09 00:22:09;;;;;;;7.25;2.55;;;2.80;99.90;;;;;;5088603;28;20894;-65
2021/12/09 00:24:35;;;;;;;6.55;3.15;;;2.90;99.90;;;;;;5087252;28;20215;-65
2021/12/09 00:27:01;;;;;;;5.30;3.20;;;2.90;99.90;;;;;;5086643;28;20220;-66
2021/12/09 00:29:27;;;;;;;7.33;3.93;;;2.90;99.90;;;;;;5088448;28;20646;-65
2021/12/09 00:31:53;;;;;;;7.73;4.33;;;2.90;99.90;;;;;;5088231;28;20487;-66
2021/12/09 00:34:20;;;;;;;6.10;3.67;;;2.80;99.90;;;;;;5087284;28;20189;-66
2021/12/09 00:37:04;;;;;;;5.63;4.93;;;2.70;99.90;;;;;;5088846;28;20837;-66
2021/12/09 00:39:30;;;;;;;4.93;3.70;;;2.70;99.90;;;;;;5089114;28;20190;-66
2021/12/09 00:41:56;;;;;;;5.90;3.20;;;2.80;99.90;;;;;;5088755;28;20498;-66
2021/12/09 00:44:21;;;;;;;9.33;3.60;;;2.70;99.90;;;;;;5088656;28;20666;-65
2021/12/09 00:46:47;;;;;;;3.57;2.67;;;2.70;99.90;;;;;;5069978;28;20190;-66
2021/12/09 00:49:13;;;;;;;4.60;2.20;;;2.70;99.90;;;;;;5087358;28;20189;-65
2021/12/09 00:51:38;;;;;;;4.37;2.60;;;2.60;99.90;;;;;;5088706;28;20185;-64
2021/12/09 00:54:04;;;;;;;4.40;2.50;;;2.60;99.90;;;;;;5070211;28;20424;-64
2021/12/09 00:56:30;;;;;;;4.40;2.20;;;2.50;99.90;;;;;;5087141;28;20865;-66
2021/12/09 00:58:55;;;;;;;7.23;3.13;;;2.50;99.90;;;;;;5068397;28;20454;-67
2021/12/09 01:01:22;;;;;;;8.17;3.43;;;2.40;99.90;;;;;;5086334;28;20990;-66
2021/12/09 01:03:48;;;;;;;5.05;3.05;;;2.40;99.90;;;;;;5087343;28;20216;-66
2021/12/09 01:06:14;;;;;;;3.63;3.33;;;2.40;99.90;;;;;;5087601;28;20233;-65
2021/12/09 01:08:42;;;;;;;9.07;5.07;;;2.30;99.90;;;;;;5087953;28;20214;-66
2021/12/09 01:11:08;;;;;;;5.57;4.93;;;2.20;99.90;;;;;;5087785;28;20272;-65
2021/12/09 01:13:34;;;;;;;4.10;3.70;;;2.10;99.90;;;;;;5052004;28;20328;-66
2021/12/09 01:16:00;;;;;;;4.27;2.87;;;2.10;99.90;;;;;;5087672;28;20659;-65
2021/12/09 01:18:26;;;;;;;3.47;3.17;;;2.00;99.90;;;;;;5087467;28;20436;-65
2021/12/09 01:20:52;;;;;;;3.50;2.63;;;2.00;99.90;;;;;;5086128;28;20203;-66
2021/12/09 01:23:17;;;;;;;5.00;2.30;;;2.00;99.90;;;;;;5087811;28;20203;-66
2021/12/09 01:25:44;;;;;;;1.57;1.47;;;2.00;99.90;;;;;;5069757;28;20427;-66
2021/12/09 01:28:19;;;;;;;2.05;1.85;;;2.00;99.90;;;;;;5088284;28;20425;-65
2021/12/09 01:30:47;;;;;;;1.50;1.40;;;2.00;99.90;;;;;;5086650;28;20187;-65
2021/12/09 01:33:13;;;;;;;1.35;1.15;;;2.00;99.90;;;;;;5088244;28;20313;-65
2021/12/09 01:35:40;;;;;;;1.27;1.07;;;2.00;99.90;;;;;;5088118;28;20671;-66
2021/12/09 01:38:12;;;;;;;4.18;2.95;;;2.00;99.90;;;;;;5088300;28;20208;-65
2021/12/09 01:40:39;;;;;;;7.03;4.40;;;1.90;99.90;;;;;;5087989;28;20192;-64
2021/12/09 01:43:04;;;;;;;4.65;3.83;;;1.90;99.90;;;;;;5087980;28;20270;-65
2021/12/09 01:45:31;;;;;;;5.70;3.93;;;1.80;99.90;;;;;;5069781;28;20204;-65
2021/12/09 01:47:57;;;;;;;4.80;4.30;;;1.80;99.90;;;;;;5082574;28;20192;-65
2021/12/09 01:50:24;;;;;;;4.63;4.17;;;1.80;99.90;;;;;;5086376;28;20567;-65
2021/12/09 01:52:51;;;;;;;3.78;3.47;;;1.80;99.90;;;;;;5086220;28;20201;-66
2021/12/09 01:55:18;;;;;;;5.75;3.13;;;1.80;99.90;;;;;;5087897;28;20205;-65
2021/12/09 01:57:47;;;;;;;3.70;3.40;;;1.80;99.90;;;;;;5086135;28;20244;-64
2021/12/09 02:00:16;;;;;;;3.78;3.42;;;1.70;99.90;;;;;;5085998;28;20190;-64
2021/12/09 02:02:42;;;;;;;5.85;4.10;;;1.70;99.90;;;;;;5087288;28;20262;-64
2021/12/09 02:05:10;;;;;;;4.13;3.80;;;1.70;99.90;;;;;;5087876;28;20191;-64
2021/12/09 02:07:36;;;;;;;6.93;4.75;;;1.70;99.90;;;;;;5087181;28;20774;-63
2021/12/09 02:10:05;;;;;;;3.50;3.20;;;1.80;99.90;;;;;;5086298;28;20274;-64
2021/12/09 02:12:30;;;;;;;5.78;4.05;;;1.80;99.90;;;;;;5069257;28;20445;-64
2021/12/09 02:14:59;;;;;;;2.10;1.97;;;1.80;99.90;;;;;;5087565;28;20195;-64
2021/12/09 02:17:30;;;;;;;7.65;3.80;;;1.70;99.90;;;;;;5086029;28;20180;-65
2021/12/09 02:19:57;;;;;;;3.90;2.42;;;1.60;99.90;;;;;;5084399;28;20198;-65
2021/12/09 02:22:24;;;;;;;4.75;2.97;;;1.60;99.90;;;;;;5087102;28;20312;-64
2021/12/09 02:24:52;;;;;;;2.88;2.35;;;1.50;99.90;;;;;;5083118;28;20242;-66
2021/12/09 02:27:18;;;;;;;3.70;2.70;;;1.60;99.90;;;;;;5087298;28;20539;-66
2021/12/09 02:29:44;;;;;;;3.07;2.17;;;1.70;99.90;;;;;;5087122;28;20192;-66
2021/12/09 02:32:09;;;;;;;2.53;2.33;;;1.70;99.90;;;;;;5090317;28;20178;-65
2021/12/09 02:34:35;;;;;;;3.03;2.30;;;1.70;99.90;;;;;;5090986;28;20217;-64
2021/12/09 02:37:03;;;;;;;3.20;2.10;;;1.80;99.90;;;;;;5090878;28;20230;-65
2021/12/09 02:39:29;;;;;;;2.72;2.00;;;1.80;99.90;;;;;;5091178;28;20436;-65
2021/12/09 02:41:56;;;;;;;2.17;2.08;;;1.90;99.90;;;;;;5089515;28;20297;-65
2021/12/09 02:44:22;;;;;;;4.63;2.33;;;2.00;99.90;;;;;;5090605;28;20207;-64
2021/12/09 02:46:52;;;;;;;7.18;2.50;;;2.00;99.90;;;;;;5090425;28;20174;-65
2021/12/09 02:49:20;;;;;;;2.53;2.33;;;2.00;99.90;;;;;;5086845;28;20183;-64
2021/12/09 02:51:49;;;;;;;2.53;2.33;;;2.10;99.90;;;;;;5080940;28;20760;-65
2021/12/09 02:54:17;;;;;;;8.65;3.58;;;2.10;99.90;;;;;;5084898;28;20185;-66
2021/12/09 02:56:49;;;;;;;8.88;3.80;;;2.20;99.90;;;;;;5090301;28;20194;-66
2021/12/09 02:59:14;;;;;;;8.75;4.50;;;2.30;99.90;;;;;;5085155;28;20237;-66
2021/12/09 03:01:53;;;;;;;12.27;3.70;;;2.30;99.90;;;;;;5089525;28;20196;-66
2021/12/09 03:04:19;;;;;;;8.13;4.20;;;2.40;99.90;;;;;;5087035;28;20567;-67
2021/12/09 03:06:45;;;;;;;15.67;4.33;;;2.40;99.90;;;;;;5089551;28;20258;-66
2021/12/09 03:09:18;;;;;;;10.07;3.88;;;2.50;99.90;;;;;;5090218;28;20180;-66
2021/12/09 03:11:52;;;;;;;10.80;4.05;;;2.50;99.90;;;;;;5082385;28;20192;-66
2021/12/09 03:14:18;;;;;;;10.85;4.13;;;2.60;99.90;;;;;;5088241;28;20237;-67
2021/12/09 03:16:44;;;;;;;6.43;3.53;;;2.60;99.90;;;;;;5088186;28;20190;-66
2021/12/09 03:19:09;;;;;;;4.90;3.83;;;2.60;99.90;;;;;;5088206;28;20880;-65
2021/12/09 03:21:44;;;;;;;9.70;4.47;;;2.70;99.90;;;;;;5089997;28;20191;-65
2021/12/09 03:24:14;;;;;;;10.82;5.00;;;2.60;99.90;;;;;;5084381;28;20880;-64
2021/12/09 03:26:46;;;;;;;14.50;4.17;;;2.60;99.90;;;;;;5084302;28;21021;-65
2021/12/09 03:29:14;;;;;;;8.07;4.38;;;2.60;99.90;;;;;;5086420;28;20426;-64
2021/12/09 03:31:42;;;;;;;7.93;4.50;;;2.70;99.90;;;;;;5089980;28;20255;-65
2021/12/09 03:34:10;;;;;;;7.50;4.38;;;2.70;99.90;;;;;;5085513;28;20270;-64
2021/12/09 03:36:36;;;;;;;7.65;4.55;;;2.70;99.90;;;;;;5089728;28;20195;-65
2021/12/09 03:39:06;;;;;;;15.30;4.90;;;2.70;99.90;;;;;;5088369;28;20183;-65
2021/12/09 03:41:32;;;;;;;10.55;3.53;;;2.70;99.90;;;;;;5089536;28;20217;-65
2021/12/09 03:43:58;;;;;;;9.00;4.97;;;2.60;99.90;;;;;;5088348;28;20221;-64
2021/12/09 03:46:24;;;;;;;12.63;3.33;;;2.70;99.90;;;;;;5087724;28;20193;-64
2021/12/09 03:48:50;;;;;;;9.57;4.37;;;2.60;99.90;;;;;;5089541;28;20268;-63
2021/12/09 03:51:15;;;;;;;9.57;4.40;;;2.60;99.90;;;;;;5089555;28;20290;-64
2021/12/09 03:53:41;;;;;;;17.97;5.30;;;2.70;99.90;;;;;;5089592;28;20551;-64
2021/12/09 03:56:07;;;;;;;7.80;4.93;;;2.70;99.90;;;;;;5070787;28;20710;-65
2021/12/09 03:58:33;;;;;;;9.97;4.43;;;2.70;99.90;;;;;;5089076;28;20199;-64
2021/12/09 04:00:58;;;;;;;13.97;4.23;;;2.70;99.90;;;;;;5089259;28;20222;-64
2021/12/09 04:03:24;;;;;;;6.40;4.70;;;2.60;99.90;;;;;;5088884;28;20217;-65
2021/12/09 04:05:51;;;;;;;9.87;3.93;;;2.60;99.90;;;;;;5087181;28;20212;-64
2021/12/09 04:08:17;;;;;;;14.20;4.07;;;2.60;99.90;;;;;;5087060;28;21306;-66
2021/12/09 04:10:44;;;;;;;7.47;4.03;;;2.70;99.90;;;;;;5087340;28;20644;-65
2021/12/09 04:13:10;;;;;;;23.13;4.85;;;2.70;99.90;;;;;;5088904;28;20192;-64
2021/12/09 04:15:36;;;;;;;7.00;4.37;;;2.70;99.90;;;;;;5088970;28;20202;-65
2021/12/09 04:18:02;;;;;;;7.63;5.00;;;2.70;99.90;;;;;;5088717;28;20450;-65
2021/12/09 04:20:28;;;;;;;8.07;4.07;;;2.70;99.90;;;;;;5083270;28;20219;-65
2021/12/09 04:22:54;;;;;;;10.57;5.47;;;2.70;99.90;;;;;;5087063;28;20362;-63
2021/12/09 04:25:23;;;;;;;8.10;4.43;;;2.70;99.90;;;;;;5089120;28;20421;-65
2021/12/09 04:27:51;;;;;;;10.63;5.07;;;2.70;99.90;;;;;;5089212;28;20773;-64
2021/12/09 04:30:17;;;;;;;9.80;4.40;;;2.80;99.90;;;;;;5088955;28;20206;-64
2021/12/09 04:32:44;;;;;;;15.63;4.63;;;2.80;99.90;;;;;;5088644;28;20190;-64
2021/12/09 04:35:11;;;;;;;10.23;4.30;;;2.70;99.90;;;;;;5088696;28;20199;-63
2021/12/09 04:37:37;;;;;;;17.65;4.75;;;2.70;99.90;;;;;;5088546;28;20236;-64
2021/12/09 04:40:08;;;;;;;8.37;3.87;;;2.70;99.90;;;;;;5086749;28;20189;-66
2021/12/09 04:42:34;;;;;;;8.27;3.55;;;2.80;99.90;;;;;;5086718;28;20537;-64
2021/12/09 04:45:00;;;;;;;11.38;3.47;;;2.80;99.90;;;;;;5086883;28;20192;-64
2021/12/09 04:47:26;;;;;;;8.50;3.43;;;2.80;99.90;;;;;;5088230;28;20734;-66
2021/12/09 04:49:52;;;;;;;12.30;4.83;;;2.80;99.90;;;;;;5088337;28;20430;-67
2021/12/09 04:52:17;;;;;;;7.30;4.67;;;2.80;99.90;;;;;;5086266;28;20443;-66
2021/12/09 04:54:43;;;;;;;7.77;5.10;;;2.70;99.90;;;;;;5087489;28;20194;-67
2021/12/09 04:57:10;;;;;;;8.90;4.70;;;2.70;99.90;;;;;;5086117;28;20308;-66
2021/12/09 04:59:44;;;;;;;14.20;5.70;;;2.70;99.90;;;;;;5088112;28;20438;-66
2021/12/09 05:02:21;;;;;;;6.87;4.40;;;3.50;99.90;;;;;;5069055;28;20220;-66
2021/12/09 05:04:47;;;;;;;8.23;4.60;;;2.70;99.90;;;;;;5087576;28;20472;-67
2021/12/09 05:07:13;;;;;;;16.48;5.90;;;2.70;99.90;;;;;;5085614;28;20278;-66
2021/12/09 05:09:49;;;;;;;7.00;4.60;;;2.80;99.90;;;;;;5087840;28;20579;-67
2021/12/09 05:12:16;;;;;;;5.80;4.10;;;2.80;99.90;;;;;;5084970;28;20577;-67
2021/12/09 05:14:44;;;;;;;10.90;3.83;;;2.80;99.90;;;;;;5081402;28;20473;-66
2021/12/09 05:17:11;;;;;;;7.85;3.42;;;2.80;99.90;;;;;;5084250;28;20524;-68
2021/12/09 05:19:37;;;;;;;13.85;4.15;;;2.80;99.90;;;;;;5085652;28;20636;-68
2021/12/09 05:22:03;;;;;;;8.67;4.37;;;2.80;99.90;;;;;;5085480;28;20272;-68
2021/12/09 05:24:29;;;;;;;10.05;5.05;;;2.80;99.90;;;;;;5085503;28;20221;-68
2021/12/09 05:26:56;;;;;;;6.60;4.23;;;2.90;99.90;;;;;;5085262;28;20942;-68
2021/12/09 05:29:28;;;;;;;13.48;4.65;;;2.90;99.90;;;;;;5084067;28;20458;-68
2021/12/09 05:32:10;;;;;;;12.38;4.88;;;2.90;99.90;;;;;;5083704;28;20224;-68
2021/12/09 05:34:48;;;;;;;7.93;4.38;;;2.90;99.90;;;;;;5085366;28;20192;-68
2021/12/09 05:37:16;;;;;;;8.50;4.72;;;2.80;99.90;;;;;;5084947;28;20202;-68
2021/12/09 05:39:42;;;;;;;8.45;4.30;;;2.80;99.90;;;;;;5083773;28;20192;-74
2021/12/09 05:42:10;;;;;;;9.73;3.80;;;2.90;99.90;;;;;;5083487;28;20209;-74
2021/12/09 05:44:36;;;;;;;7.18;3.40;;;2.90;99.90;;;;;;5083625;28;20505;-73
2021/12/09 05:47:04;;;;;;;8.43;3.28;;;2.90;99.90;;;;;;5084471;28;21033;-72
2021/12/09 05:49:30;;;;;;;7.35;3.20;;;2.80;99.90;;;;;;5085213;28;20211;-73
2021/12/09 05:51:56;;;;;;;5.27;2.50;;;2.90;99.90;;;;;;5083346;28;20310;-72
2021/12/09 05:54:21;;;;;;;8.20;2.70;;;2.90;99.90;;;;;;5085182;28;20311;-71
2021/12/09 05:56:48;;;;;;;7.20;3.10;;;2.90;99.90;;;;;;5083386;28;20438;-74
2021/12/09 05:59:14;;;;;;;5.40;3.05;;;2.90;99.90;;;;;;5084007;28;20212;-73
2021/12/09 06:01:40;;;;;;;7.32;2.90;;;2.90;99.90;;;;;;5085104;28;21063;-70
2021/12/09 06:04:07;;;;;;;6.40;3.43;;;2.90;99.90;;;;;;5085121;28;20217;-73
2021/12/09 06:06:33;;;;;;;12.60;2.90;;;2.90;99.90;;;;;;5085492;28;20542;-73
2021/12/09 06:08:59;;;;;;;3.80;2.45;;;2.90;99.90;;;;;;5088356;28;20445;-74
2021/12/09 06:11:26;;;;;;;10.40;3.60;;;2.90;99.90;;;;;;5087841;28;20261;-72
2021/12/09 06:13:53;;;;;;;6.67;3.23;;;2.80;99.90;;;;;;5087210;28;20243;-72
2021/12/09 06:16:19;;;;;;;8.60;3.80;;;2.80;99.90;;;;;;5087377;28;20488;-72
2021/12/09 06:18:45;;;;;;;6.37;3.07;;;2.90;99.90;;;;;;5086742;28;20192;-73
2021/12/09 06:21:11;;;;;;;10.02;2.80;;;2.80;99.90;;;;;;5088788;28;20909;-73
2021/12/09 06:23:37;;;;;;;6.57;3.00;;;2.90;99.90;;;;;;5087067;28;20746;-73
2021/12/09 06:26:06;;;;;;;5.90;2.47;;;2.90;99.90;;;;;;5088335;28;20226;-73
2021/12/09 06:28:31;;;;;;;6.32;2.70;;;2.90;99.90;;;;;;5088405;28;20191;-74
2021/12/09 06:30:57;;;;;;;5.40;2.90;;;2.80;99.90;;;;;;5087101;28;20202;-74
2021/12/09 06:33:23;;;;;;;8.50;3.13;;;2.80;99.90;;;;;;5086843;28;20583;-73
2021/12/09 06:35:49;;;;;;;8.77;3.13;;;2.90;99.90;;;;;;5088579;28;20450;-72
2021/12/09 06:38:16;;;;;;;4.70;2.80;;;2.80;99.90;;;;;;5087346;28;20192;-74
2021/12/09 06:40:43;;;;;;;11.10;3.13;;;2.80;99.90;;;;;;5088633;28;20196;-73
2021/12/09 06:43:09;;;;;;;6.03;2.33;;;2.90;99.90;;;;;;5087048;28;20219;-73
2021/12/09 06:45:35;;;;;;;4.43;2.50;;;2.90;99.90;;;;;;5088369;28;20434;-74
2021/12/09 06:48:01;;;;;;;5.57;1.95;;;2.90;99.90;;;;;;5088157;28;20502;-73
2021/12/09 06:50:26;;;;;;;5.93;2.13;;;2.90;99.90;;;;;;5086458;28;20574;-74
2021/12/09 06:52:52;;;;;;;5.13;1.53;;;2.90;99.90;;;;;;5086169;28;20220;-73
2021/12/09 06:55:20;;;;;;;9.83;2.10;;;2.90;99.90;;;;;;5088459;28;20194;-74
2021/12/09 06:57:46;;;;;;;5.70;2.05;;;2.90;99.90;;;;;;5086403;28;20199;-73
2021/12/09 07:00:18;;;;;;;4.50;1.70;;;2.90;99.90;;;;;;5088532;28;20196;-74
2021/12/09 07:02:44;;;;;;;4.33;2.40;;;2.90;99.90;;;;;;5086969;28;20731;-73
2021/12/09 07:05:12;;;;;;;4.53;2.23;;;2.90;99.90;;;;;;5088116;28;20470;-73
2021/12/09 07:07:38;;;;;;;4.57;2.17;;;3.00;99.90;;;;;;5086044;28;20452;-72
2021/12/09 07:10:07;;;;;;;8.70;2.00;;;2.90;99.90;;;;;;5088037;28;20209;-72
2021/12/09 07:12:35;;;;;;;6.60;1.90;;;2.90;99.90;;;;;;5085772;28;20436;-73
2021/12/09 07:15:02;;;;;;;7.77;1.67;;;2.90;99.90;;;;;;5087289;28;20436;-73
2021/12/09 07:17:27;;;;;;;3.80;1.50;;;2.80;99.90;;;;;;5084849;28;20462;-74
2021/12/09 07:19:53;;;;;;;2.60;1.70;;;2.80;99.90;;;;;;5086116;28;20439;-74
2021/12/09 07:22:18;;;;;;;5.27;2.30;;;2.80;99.90;;;;;;5087380;28;20197;-73
2021/12/09 07:24:45;;;;;;;6.87;2.50;;;2.80;99.90;;;;;;5087464;28;20269;-72
2021/12/09 07:27:11;;;;;;;9.13;2.05;;;2.80;99.90;;;;;;5087262;28;20670;-73
2021/12/09 07:29:37;;;;;;;12.20;3.60;;;2.80;99.90;;;;;;5087578;28;20935;-73
2021/12/09 07:32:03;;;;;;;3.73;1.60;;;2.80;99.90;;;;;;5087475;28;20275;-71
2021/12/09 07:34:29;;;;;;;6.05;1.70;;;2.80;99.90;;;;;;5087280;28;20229;-74
2021/12/09 07:36:57;;;;;;;8.80;2.03;;;2.90;99.90;;;;;;5087343;28;20203;-73
2021/12/09 07:39:23;;;;;;;6.90;1.85;;;2.90;99.90;;;;;;5085850;28;20650;-74
2021/12/09 07:41:48;;;;;;;8.93;1.97;;;2.90;99.90;;;;;;5087087;28;20208;-72
2021/12/09 07:44:17;;;;;;;4.20;2.60;;;3.00;99.90;;;;;;5085657;28;20211;-73
2021/12/09 07:46:45;;;;;;;5.30;2.13;;;3.00;99.90;;;;;;5069045;28;20193;-73
2021/12/09 07:49:11;;;;;;;6.30;1.70;;;3.00;99.90;;;;;;5087039;28;20319;-72
2021/12/09 07:51:37;;;;;;;5.70;1.93;;;3.00;99.90;;;;;;5087371;28;20321;-72
2021/12/09 07:54:03;;;;;;;9.70;2.00;;;3.00;99.90;;;;;;5087197;28;20193;-73
2021/12/09 07:56:28;;;;;;;8.47;2.10;;;3.00;99.90;;;;;;5086379;28;20604;-72
2021/12/09 07:58:54;;;;;;;7.53;1.93;;;3.00;99.90;;;;;;5086940;28;20432;-73
2021/12/09 08:01:20;;;;;;;6.27;1.97;;;3.10;99.90;;;;;;5084863;28;20200;-72
2021/12/09 08:03:47;;;;;;;7.87;1.43;;;3.10;99.90;;;;;;5067913;28;20210;-75
2021/12/09 08:06:14;;;;;;;2.00;1.70;;;3.10;99.90;;;;;;5084532;28;20212;-74
2021/12/09 08:08:40;;;;;;;5.30;1.88;;;3.10;99.90;;;;;;5084874;28;20207;-74
2021/12/09 08:11:07;;;;;;;7.13;1.27;;;3.20;99.90;;;;;;5086441;28;20245;-75
2021/12/09 08:13:33;;;;;;;9.98;1.83;;;3.20;99.90;;;;;;5084720;28;20186;-73
2021/12/09 08:16:00;;;;;;;5.68;1.83;;;3.20;99.90;;;;;;5084542;28;20252;-75
2021/12/09 08:18:27;;;;;;;11.23;2.15;;;3.20;99.90;;;;;;5085365;28;20190;-71
2021/12/09 08:21:01;;;;;;;3.20;1.65;;;3.20;99.90;;;;;;5084821;28;20282;-74
2021/12/09 08:23:28;;;;;;;7.78;1.95;;;3.10;99.90;;;;;;5084166;28;20379;-75
2021/12/09 08:25:55;;;;;;;5.05;2.15;;;3.10;99.90;;;;;;5085623;28;20203;-75
2021/12/09 08:28:21;;;;;;;5.25;1.52;;;3.10;99.90;;;;;;5084423;28;20546;-74
2021/12/09 08:30:50;;;;;;;5.88;1.88;;;3.10;99.90;;;;;;5086846;28;20200;-72
2021/12/09 08:33:17;;;;;;;3.17;1.23;;;3.20;99.90;;;;;;5086820;28;20188;-74
2021/12/09 08:35:43;;;;;;;8.85;2.33;;;3.20;99.90;;;;;;5086827;28;20197;-75
2021/12/09 08:38:09;;;;;;;10.95;2.25;;;3.20;99.90;;;;;;5085163;28;20222;-73
2021/12/09 08:40:36;;;;;;;1.47;1.33;;;3.30;99.90;;;;;;5085254;28;20256;-75
2021/12/09 08:43:03;;;;;;;6.28;2.00;;;3.20;99.90;;;;;;5085319;28;20686;-75
2021/12/09 08:45:29;;;;;;;8.10;1.85;;;3.20;99.90;;;;;;5086533;28;20189;-73
2021/12/09 08:47:54;;;;;;;8.23;2.45;;;3.10;99.90;;;;;;5086725;28;20193;-75
2021/12/09 08:50:24;;;;;;;3.70;1.70;;;3.20;99.90;;;;;;5086710;28;20189;-73
2021/12/09 08:52:52;;;;;;;1.98;1.40;;;3.20;99.90;;;;;;5086495;28;20191;-73
2021/12/09 08:55:18;;;;;;;4.78;2.00;;;3.20;99.90;;;;;;5086558;28;20200;-73
2021/12/09 08:57:46;;;;;;;4.35;1.85;;;3.20;99.90;;;;;;5086179;28;20215;-75
2021/12/09 09:00:15;;;;;;;2.35;1.92;;;3.20;99.90;;;;;;5083564;28;20196;-74
2021/12/09 09:02:43;;;;;;;4.60;2.45;;;3.20;99.90;;;;;;5086131;28;20629;-74
2021/12/09 09:05:11;;;;;;;2.67;2.00;;;3.20;99.90;;;;;;5086018;28;20195;-75
2021/12/09 09:07:38;;;;;;;4.43;2.35;;;3.20;99.90;;;;;;5083544;28;20255;-76
2021/12/09 09:10:05;;;;;;;2.65;1.90;;;3.30;99.90;;;;;;5084832;28;20646;-73
2021/12/09 09:12:33;;;;;;;3.70;1.73;;;3.40;99.90;;;;;;5085298;28;20266;-75
2021/12/09 09:14:59;;;;;;;3.77;1.90;;;3.40;99.90;;;;;;5084910;28;20463;-75
2021/12/09 09:17:25;;;;;;;3.43;1.57;;;3.40;99.90;;;;;;5083907;28;20427;-74
2021/12/09 09:19:50;;;;;;;2.07;1.53;;;3.50;99.90;;;;;;5085792;28;20445;-74
2021/12/09 09:22:16;;;;;;;4.70;2.13;;;3.50;99.90;;;;;;5083658;28;20197;-74
2021/12/09 09:24:42;;;;;;;2.30;1.50;;;3.50;99.90;;;;;;5082491;28;20218;-72
2021/12/09 09:27:07;;;;;;;6.50;2.20;;;3.50;99.90;;;;;;5085126;28;20192;-74
2021/12/09 09:29:34;;;;;;;3.50;1.77;;;3.50;99.90;;;;;;5085611;28;20664;-75
2021/12/09 09:32:01;;;;;;;3.30;1.95;;;3.50;99.90;;;;;;5085717;28;20434;-71
2021/12/09 09:34:27;;;;;;;4.45;1.50;;;3.50;99.90;;;;;;5084022;28;20210;-75
2021/12/09 09:36:52;;;;;;;3.07;1.53;;;3.40;99.90;;;;;;5083903;28;20189;-73
2021/12/09 09:39:20;;;;;;;1.67;1.40;;;3.50;99.90;;;;;;5083888;28;20438;-74
2021/12/09 09:41:55;;;;;;;3.78;2.13;;;3.50;99.90;;;;;;5083980;28;20202;-73
2021/12/09 09:44:27;;;;;;;4.32;1.60;;;3.60;99.90;;;;;;5084485;28;20223;-73
2021/12/09 09:46:58;;;;;;;3.08;1.88;;;3.60;99.90;;;;;;5085124;28;20270;-75
2021/12/09 09:49:24;;;;;;;3.13;2.00;;;3.60;99.90;;;;;;5084178;28;20234;-74
2021/12/09 09:51:50;;;;;;;4.70;1.53;;;3.60;99.90;;;;;;5084747;28;20437;-73
2021/12/09 09:54:18;;;;;;;1.77;1.40;;;3.70;99.90;;;;;;5085308;28;20439;-74
2021/12/09 09:56:44;;;;;;;6.93;2.10;;;3.70;99.90;;;;;;5083724;28;20428;-74
2021/12/09 09:59:12;;;;;;;2.60;1.37;;;3.70;99.90;;;;;;5083943;28;20465;-75
2021/12/09 10:01:40;;;;;;;3.20;1.73;;;3.70;99.90;;;;;;5085959;28;20469;-75
2021/12/09 10:04:13;;;;;;;1.10;1.00;;;3.70;99.90;;;;;;5085616;28;20467;-74
2021/12/09 10:06:42;;;;;;;2.58;1.65;;;3.60;99.90;;;;;;5085113;28;21047;-73
2021/12/09 10:09:11;;;;;;;1.63;1.35;;;3.60;99.90;;;;;;5084386;28;20197;-74
2021/12/09 10:11:37;;;;;;;1.67;1.40;;;3.70;99.90;;;;;;5085713;28;20202;-72
2021/12/09 10:14:17;;;;;;;3.22;1.70;;;3.60;99.90;;;;;;5085235;28;20698;-73
2021/12/09 10:16:45;;;;;;;3.38;1.58;;;3.60;99.90;;;;;;5084576;28;20188;-75
2021/12/09 10:19:20;;;;;;;24.10;16.90;;;3.60;99.90;;;;;;5084717;28;20201;-75
2021/12/09 10:21:47;;;;;;;12.50;7.03;;;3.60;99.90;;;;;;5085020;28;20453;-72
2021/12/09 10:24:14;;;;;;;52.55;25.52;;;3.60;99.90;;;;;;5084897;28;20332;-72
2021/12/09 10:26:45;;;;;;;55.80;24.37;;;3.70;99.90;;;;;;5084489;28;20196;-72
2021/12/09 10:29:29;;;;;;;7.03;3.67;;;3.70;99.90;;;;;;5084053;28;20452;-74
2021/12/09 10:31:59;;;;;;;2.93;1.80;;;3.80;99.90;;;;;;5084359;28;20448;-74
2021/12/09 10:34:41;;;;;;;2.93;2.03;;;3.90;99.90;;;;;;5083413;28;20457;-74
2021/12/09 10:37:09;;;;;;;4.50;2.00;;;3.80;99.90;;;;;;5084351;28;20538;-75
2021/12/09 10:39:46;;;;;;;3.80;2.00;;;3.80;99.90;;;;;;5084898;28;20456;-74
2021/12/09 10:42:20;;;;;;;4.03;1.88;;;3.90;99.90;;;;;;5082993;28;20439;-73
2021/12/09 10:44:55;;;;;;;5.83;1.80;;;3.90;99.90;;;;;;5082584;28;20781;-73
2021/12/09 10:47:47;;;;;;;3.57;1.90;;;3.90;99.90;;;;;;5084153;28;20502;-74
2021/12/09 10:50:43;;;;;;;3.17;2.00;;;3.80;99.90;;;;;;5084567;28;20933;-74
2021/12/09 10:55:48;;;;;;;4.53;2.60;;;3.90;99.90;;;;;;5087967;28;20274;-70
2021/12/09 10:58:16;;;;;;;3.10;2.83;;;3.80;99.90;;;;;;5088599;28;20442;-73
2021/12/09 11:00:47;;;;;;;7.00;2.83;;;3.90;99.90;;;;;;5087248;28;20447;-73
2021/12/09 11:03:21;;;;;;;3.23;2.90;;;3.90;99.90;;;;;;5088161;28;20489;-74
2021/12/09 11:06:12;;;;;;;3.37;2.60;;;4.00;99.90;;;;;;5085996;28;20528;-71
2021/12/09 11:08:45;;;;;;;3.73;2.93;;;4.00;99.90;;;;;;5088267;28;20986;-72
2021/12/09 11:11:12;;;;;;;3.43;2.70;;;4.00;99.90;;;;;;5088069;28;20439;-70
2021/12/09 11:13:45;;;;;;;3.42;2.60;;;4.00;99.90;;;;;;5088042;28;20465;-74
2021/12/09 11:16:22;;;;;;;2.63;2.43;;;4.00;99.90;;;;;;5087560;28;20792;-74
2021/12/09 11:18:48;;;;;;;2.83;2.53;;;4.10;99.90;;;;;;5087299;28;20443;-73
2021/12/09 11:21:29;;;;;;;4.07;2.90;;;4.20;99.90;;;;;;5086331;28;20444;-72
2021/12/09 11:24:01;;;;;;;4.30;2.57;;;4.20;99.90;;;;;;5086627;28;20966;-70
2021/12/09 11:29:31;;;;;;;4.20;3.20;;;4.30;99.90;;;;;;5087665;28;20220;-74
2021/12/09 11:32:10;;;;;;;9.20;3.13;;;4.30;99.90;;;;;;5086806;28;20451;-71
2021/12/09 11:34:45;;;;;;;3.03;2.70;;;4.40;99.90;;;;;;5087475;28;20788;-72
2021/12/09 11:43:04;;;;;;;3.47;2.73;;;4.40;99.90;;;;;;5086889;28;20446;-72
2021/12/09 11:45:36;;;;;;;3.23;2.47;;;4.50;99.90;;;;;;5087155;28;20609;-69
2021/12/09 11:48:04;;;;;;;4.23;3.20;;;4.60;99.90;;;;;;5086955;28;20429;-72
2021/12/09 11:50:33;;;;;;;3.83;2.27;;;4.60;99.90;;;;;;5086303;28;21133;-70
2021/12/09 11:53:01;;;;;;;4.10;2.90;;;4.60;99.90;;;;;;5085179;28;20433;-72
2021/12/09 11:55:34;;;;;;;3.63;2.60;;;4.70;99.90;;;;;;5086660;28;20487;-72
2021/12/09 11:58:06;;;;;;;5.67;2.80;;;4.70;99.90;;;;;;5085434;28;20772;-72
2021/12/09 12:14:53;;;;;;;3.53;2.33;;;4.60;99.90;;;;;;5085796;28;20547;-71
2021/12/09 12:17:27;;;;;;;2.60;1.60;;;4.40;99.90;;;;;;5084936;28;21271;-71
2021/12/09 12:26:35;;;;;;;3.27;2.60;;;4.20;99.90;;;;;;5086699;28;20440;-72
2021/12/09 12:31:32;;;;;;;2.50;2.20;;;4.30;99.90;;;;;;5086822;28;20434;-73
2021/12/09 12:37:18;;;;;;;2.58;2.38;;;4.40;99.90;;;;;;5083613;28;20454;-70
2021/12/09 12:42:16;;;;;;;5.93;2.35;;;4.30;99.90;;;;;;5085943;28;21037;-71
2021/12/09 12:47:54;;;;;;;6.70;2.20;;;4.40;99.90;;;;;;5085462;28;20446;-71
2021/12/09 12:50:22;;;;;;;5.03;2.77;;;4.40;99.90;;;;;;5084585;28;20438;-72
2021/12/09 12:52:48;;;;;;;4.13;2.57;;;4.40;99.90;;;;;;5084226;28;20430;-70
2021/12/09 12:55:16;;;;;;;8.60;3.00;;;4.40;99.90;;;;;;5085837;28;20775;-71
2021/12/09 12:57:51;;;;;;;4.70;2.50;;;4.40;99.90;;;;;;5084899;28;21017;-72
2021/12/09 13:00:21;;;;;;;5.05;2.47;;;4.50;99.90;;;;;;5085966;28;20434;-72
2021/12/09 13:05:33;;;;;;;5.43;3.07;;;4.70;99.90;;;;;;5085614;28;20439;-71
2021/12/09 13:08:30;;;;;;;3.47;2.00;;;4.80;99.90;;;;;;5083699;28;21024;-72
2021/12/09 13:19:52;;;;;;;2.95;1.52;;;5.00;99.90;;;;;;5083993;28;20225;-71
2021/12/09 13:22:01;;;;;;;3.90;1.50;;;4.90;99.90;;;;;;5079306;28;20195;-72
2021/12/09 13:25:03;;;;;;;2.38;1.38;;;4.90;99.90;;;;;;5085175;28;20728;-71
2021/12/09 13:27:49;;;;;;;5.50;2.27;;;4.80;99.90;;;;;;5084618;28;20750;-71
2021/12/09 13:47:27;;;;;;;1.67;1.23;;;5.40;99.90;;;;;;5085512;28;20522;-72
2021/12/09 13:50:47;;;;;;;4.20;1.73;;;5.40;99.90;;;;;;5084915;28;20195;-71
2021/12/09 13:55:19;;;;;;;4.97;2.00;;;5.00;99.90;;;;;;5084028;28;21185;-71
2021/12/09 13:57:54;;;;;;;2.40;1.50;;;4.90;99.90;;;;;;5085111;28;20193;-72
2021/12/09 14:00:19;;;;;;;3.07;1.70;;;5.00;99.90;;;;;;5084695;28;20470;-71
2021/12/09 14:02:49;;;;;;;3.53;1.30;;;5.00;99.90;;;;;;5085199;28;20487;-71
2021/12/09 14:05:16;;;;;;;5.50;1.90;;;5.00;99.90;;;;;;5083173;28;20263;-69
2021/12/09 14:07:50;;;;;;;3.30;1.73;;;5.00;99.90;;;;;;5084474;28;20440;-70
2021/12/09 14:10:17;;;;;;;4.97;2.17;;;5.10;99.90;;;;;;5084195;28;20433;-70
2021/12/09 14:12:55;;;;;;;2.97;1.67;;;5.00;99.90;;;;;;5083681;28;20440;-71
2021/12/09 14:15:37;;;;;;;4.13;1.53;;;4.90;99.90;;;;;;5083606;28;20431;-72